createdAt,value
2019-05-11T00:01:59.731Z,69.31
2019-05-11T00:07:05.749Z,68.89
2019-05-11T00:12:11.019Z,68.59
2019-05-11T00:17:22.027Z,68.77
2019-05-11T00:22:27.269Z,68.03
2019-05-11T00:27:32.437Z,67.57
2019-05-11T00:32:39.119Z,67.07
2019-05-11T00:37:44.292Z,67.06
2019-05-11T00:42:49.532Z,67.86
2019-05-11T00:47:54.629Z,67.61
2019-05-11T00:52:59.862Z,68.41
2019-05-11T00:58:05.133Z,68.13
2019-05-11T01:03:11.449Z,68.02
2019-05-11T01:08:16.695Z,67.40
2019-05-11T01:13:22.181Z,67.54
2019-05-11T01:18:28.516Z,67.06
2019-05-11T01:23:34.126Z,68.02
2019-05-11T01:28:39.380Z,68.63
2019-05-11T01:33:44.672Z,69.02
2019-05-11T01:38:51.111Z,68.74
2019-05-11T01:43:56.669Z,68.93
2019-05-11T01:49:02.420Z,69.17
2019-05-11T01:54:07.744Z,68.98
2019-05-11T01:59:14.833Z,69.28
2019-05-11T02:04:20.010Z,69.06
2019-05-11T02:09:25.278Z,69.46
2019-05-11T02:14:31.527Z,69.44
2019-05-11T02:19:36.722Z,69.01
2019-05-11T02:24:41.983Z,68.90
2019-05-11T02:29:47.247Z,68.74
2019-05-11T02:34:52.542Z,68.71
2019-05-11T02:39:57.831Z,68.83
2019-05-11T02:45:03.816Z,69.39
2019-05-11T02:50:09.781Z,69.25
2019-05-11T02:55:15.052Z,68.78
2019-05-11T03:00:24.873Z,69.10
2019-05-11T03:05:30.091Z,69.05
2019-05-11T03:10:35.442Z,68.50
2019-05-11T03:15:40.707Z,68.57
2019-05-11T03:20:50.438Z,69.15
2019-05-11T03:25:55.743Z,69.22
2019-05-11T03:31:01.270Z,69.50
2019-05-11T03:36:06.824Z,70.50
2019-05-11T03:41:12.277Z,70.46
2019-05-11T03:46:17.471Z,70.62
2019-05-11T03:51:22.704Z,70.91
2019-05-11T03:56:28.225Z,70.53
2019-05-11T04:01:34.329Z,70.29
2019-05-11T04:06:39.424Z,70.10
2019-05-11T04:11:44.945Z,70.80
2019-05-11T04:16:50.342Z,70.39
2019-05-11T04:21:55.704Z,70.45
2019-05-11T04:27:00.787Z,70.54
2019-05-11T04:32:06.010Z,70.56
2019-05-11T04:37:11.584Z,71.53
2019-05-11T04:42:16.665Z,71.04
2019-05-11T04:47:21.897Z,70.82
2019-05-11T04:52:27.143Z,71.08
2019-05-11T04:57:32.373Z,71.09
2019-05-11T05:02:37.609Z,71.38
2019-05-11T05:07:49.005Z,71.70
2019-05-11T05:12:53.333Z,71.84
2019-05-11T05:17:58.329Z,71.79
2019-05-11T05:23:03.527Z,72.34
2019-05-11T05:28:09.046Z,72.06
2019-05-11T05:33:14.366Z,71.97
2019-05-11T05:38:19.556Z,72.11
2019-05-11T05:43:28.320Z,72.33
2019-05-11T05:48:31.913Z,72.24
2019-05-11T05:53:37.371Z,71.92
2019-05-11T05:58:42.489Z,71.98
2019-05-11T06:03:47.919Z,71.66
2019-05-11T06:08:53.885Z,72.45
2019-05-11T06:14:00.378Z,71.84
2019-05-11T06:19:07.086Z,71.88
2019-05-11T06:24:12.510Z,71.84
2019-05-11T06:29:21.493Z,72.06
2019-05-11T06:34:24.875Z,71.78
2019-05-11T06:39:30.335Z,72.11
2019-05-11T06:44:35.606Z,72.85
2019-05-11T06:49:41.039Z,72.77
2019-05-11T06:54:46.263Z,72.18
2019-05-11T06:59:51.782Z,72.02
2019-05-11T07:04:57.196Z,72.10
2019-05-11T07:10:02.364Z,71.93
2019-05-11T07:15:09.076Z,71.76
2019-05-11T07:20:14.696Z,71.70
2019-05-11T07:25:20.362Z,72.18
2019-05-11T07:30:25.472Z,72.23
2019-05-11T07:35:31.444Z,72.16
2019-05-11T07:40:38.492Z,72.78
2019-05-11T07:45:43.906Z,72.24
2019-05-11T07:50:49.134Z,72.60
2019-05-11T07:55:54.741Z,72.42
2019-05-11T08:01:00.037Z,72.69
2019-05-11T08:06:05.546Z,72.97
2019-05-11T08:11:10.802Z,73.24
2019-05-11T08:16:18.322Z,73.44
2019-05-11T08:21:22.947Z,73.12
2019-05-11T08:26:28.562Z,73.57
2019-05-11T08:31:34.865Z,73.56
2019-05-11T08:36:40.108Z,73.78
2019-05-11T08:41:45.879Z,74.00
2019-05-11T08:46:51.364Z,73.36
2019-05-11T08:51:57.817Z,73.34
2019-05-11T08:57:03.893Z,73.51
2019-05-11T09:02:09.842Z,73.22
2019-05-11T09:07:15.011Z,73.47
2019-05-11T09:12:20.191Z,72.63
2019-05-11T09:17:26.098Z,72.94
2019-05-11T09:22:31.466Z,72.77
2019-05-11T09:27:37.638Z,73.09
2019-05-11T09:32:43.772Z,73.24
2019-05-11T09:37:49.796Z,73.45
2019-05-11T09:42:55.442Z,73.52
2019-05-11T09:48:00.856Z,73.30
2019-05-11T09:53:08.544Z,73.28
2019-05-11T09:58:13.455Z,72.88
2019-05-11T10:03:18.992Z,71.82
2019-05-11T10:08:24.257Z,71.44
2019-05-11T10:13:29.612Z,71.64
2019-05-11T10:18:34.767Z,72.05
2019-05-11T10:23:42.630Z,71.76
2019-05-11T10:28:48.135Z,72.21
2019-05-11T10:33:53.573Z,71.74
2019-05-11T10:38:59.030Z,71.78
2019-05-11T10:44:04.674Z,70.72
2019-05-11T10:49:09.933Z,70.89
2019-05-11T10:54:18.510Z,70.62
2019-05-11T10:59:23.373Z,71.42
2019-05-11T11:04:29.122Z,71.38
2019-05-11T11:09:34.375Z,71.94
2019-05-11T11:14:40.013Z,71.96
2019-05-11T11:19:48.476Z,71.55
2019-05-11T11:24:53.411Z,71.88
2019-05-11T11:29:58.666Z,71.50
2019-05-11T11:35:04.894Z,72.29
2019-05-11T11:40:11.360Z,72.27
2019-05-11T11:45:19.378Z,72.27
2019-05-11T11:50:24.619Z,71.81
2019-05-11T11:55:29.853Z,71.73
2019-05-11T12:00:35.081Z,71.25
2019-05-11T12:05:40.224Z,70.12
2019-05-11T12:10:45.504Z,70.58
2019-05-11T12:15:50.939Z,70.21
2019-05-11T12:20:58.562Z,71.14
2019-05-11T12:26:03.621Z,71.30
2019-05-11T12:31:08.886Z,70.61
2019-05-11T12:36:14.184Z,71.01
2019-05-11T12:41:19.355Z,71.58
2019-05-11T12:46:24.522Z,71.87
2019-05-11T12:51:29.880Z,71.62
2019-05-11T12:56:35.101Z,71.98
2019-05-11T13:01:40.609Z,72.71
2019-05-11T13:06:47.738Z,72.49
2019-05-11T13:11:52.643Z,72.61
2019-05-11T13:16:59.004Z,72.75
2019-05-11T13:22:05.129Z,73.32
2019-05-11T13:27:10.364Z,73.62
2019-05-11T13:32:15.674Z,73.55
2019-05-11T13:37:20.949Z,73.50
2019-05-11T13:42:27.750Z,74.01
2019-05-11T13:47:51.754Z,73.66
2019-05-11T13:52:47.908Z,73.71
2019-05-11T13:57:53.038Z,73.57
2019-05-11T14:03:00.363Z,73.28
2019-05-11T14:08:07.880Z,73.57
2019-05-11T14:13:12.524Z,73.67
2019-05-11T14:18:18.901Z,73.38
2019-05-11T14:23:24.074Z,73.16
2019-05-11T14:28:29.459Z,72.74
2019-05-11T14:33:38.531Z,71.84
2019-05-11T14:38:43.794Z,72.46
2019-05-11T14:43:49.177Z,71.62
2019-05-11T14:48:55.137Z,71.50
2019-05-11T14:54:00.442Z,71.53
2019-05-11T14:59:09.007Z,71.87
2019-05-11T15:04:14.686Z,72.02
2019-05-11T15:09:19.755Z,71.99
2019-05-11T15:14:25.228Z,72.48
2019-05-11T15:19:30.299Z,72.47
2019-05-11T15:24:38.337Z,72.71
2019-05-11T15:29:43.051Z,73.69
2019-05-11T15:34:48.864Z,73.37
2019-05-11T15:39:56.258Z,73.76
2019-05-11T15:45:01.739Z,73.68
2019-05-11T15:50:08.377Z,73.89
2019-05-11T15:55:14.750Z,73.56
2019-05-11T16:00:20.972Z,73.94
2019-05-11T16:05:28.524Z,74.67
2019-05-11T16:10:33.981Z,73.78
2019-05-11T16:15:40.188Z,74.54
2019-05-11T16:20:49.923Z,74.57
2019-05-11T16:25:55.207Z,74.55
2019-05-11T16:31:00.827Z,74.76
2019-05-11T16:36:08.758Z,75.28
2019-05-11T16:41:13.057Z,75.68
2019-05-11T16:46:18.122Z,75.21
2019-05-11T16:51:23.479Z,75.44
2019-05-11T16:56:28.773Z,75.55
2019-05-11T17:01:34.203Z,75.52
2019-05-11T17:06:39.356Z,75.42
2019-05-11T17:11:44.592Z,75.56
2019-05-11T17:16:49.746Z,75.47
2019-05-11T17:21:54.892Z,75.16
2019-05-11T17:26:59.883Z,74.92
2019-05-11T17:32:05.460Z,75.31
2019-05-11T17:37:10.716Z,75.39
2019-05-11T17:42:18.183Z,75.33
2019-05-11T17:47:23.823Z,75.33
2019-05-11T17:52:29.170Z,75.63
2019-05-11T17:57:34.477Z,75.79
2019-05-11T18:02:39.713Z,75.61
2019-05-11T18:07:44.852Z,75.35
2019-05-11T18:12:50.050Z,75.63
2019-05-11T18:17:55.761Z,75.72
2019-05-11T18:23:01.193Z,75.31
2019-05-11T18:28:07.117Z,75.91
2019-05-11T18:33:12.266Z,76.01
2019-05-11T18:38:17.945Z,75.31
2019-05-11T18:43:23.190Z,75.01
2019-05-11T18:48:29.092Z,75.37
2019-05-11T18:53:34.269Z,75.28
2019-05-11T18:58:40.011Z,75.21
2019-05-11T19:03:45.167Z,75.25
2019-05-11T19:08:50.330Z,75.71
2019-05-11T19:13:55.446Z,75.70
2019-05-11T19:19:00.601Z,75.54
2019-05-11T19:24:07.031Z,75.55
2019-05-11T19:29:12.537Z,75.57
2019-05-11T19:34:20.379Z,75.57
2019-05-11T19:39:25.388Z,75.34
2019-05-11T19:44:30.462Z,75.30
2019-05-11T19:49:35.750Z,75.48
2019-05-11T19:54:41.703Z,75.32
2019-05-11T19:59:48.102Z,75.39
2019-05-11T20:04:54.259Z,75.14
2019-05-11T20:09:59.421Z,75.40
2019-05-11T20:15:05.340Z,75.39
2019-05-11T20:20:10.591Z,75.07
2019-05-11T20:25:18.046Z,74.92
2019-05-11T20:30:22.514Z,74.25
2019-05-11T20:35:28.143Z,74.28
2019-05-11T20:40:35.101Z,74.54
2019-05-11T20:45:40.114Z,73.71
2019-05-11T20:50:48.344Z,73.99
2019-05-11T20:55:53.659Z,74.47
2019-05-11T21:00:58.741Z,74.88
2019-05-11T21:06:03.818Z,75.05
2019-05-11T21:11:09.000Z,75.44
2019-05-11T21:16:14.453Z,75.44
2019-05-11T21:21:19.609Z,75.23
2019-05-11T21:26:24.693Z,74.91
2019-05-11T21:31:31.229Z,74.85
2019-05-11T21:36:37.922Z,74.23
2019-05-11T21:41:43.136Z,74.02
2019-05-11T21:46:48.589Z,74.21
2019-05-11T21:52:03.922Z,73.58
2019-05-11T21:57:00.496Z,74.01
2019-05-11T22:02:10.649Z,73.52
2019-05-11T22:07:13.057Z,73.45
2019-05-11T22:12:18.793Z,73.20
2019-05-11T22:17:23.929Z,73.38
2019-05-11T22:22:28.998Z,73.09
2019-05-11T22:27:34.011Z,73.20
2019-05-11T22:32:40.141Z,73.60
2019-05-11T22:37:45.146Z,73.26
2019-05-11T22:42:50.337Z,73.64
2019-05-11T22:47:55.353Z,73.51
2019-05-11T22:53:00.497Z,73.60
2019-05-11T22:58:05.576Z,73.59
2019-05-11T23:03:11.179Z,73.13
2019-05-11T23:08:18.166Z,72.52
2019-05-11T23:13:23.391Z,73.96
2019-05-11T23:18:28.794Z,73.77
2019-05-11T23:23:33.903Z,74.29
2019-05-11T23:28:38.901Z,74.57
2019-05-11T23:33:44.062Z,75.43
2019-05-11T23:38:49.142Z,75.16
2019-05-11T23:43:54.586Z,75.04
2019-05-11T23:49:00.019Z,74.51
2019-05-11T23:54:05.169Z,73.56
2019-05-11T23:59:11.589Z,73.71
